Terminal Aerodrome Forecast
Issued by NWS Jacksonville, FL

Home | Current Version | Previous Version | Text Only | Print | Product List | Glossary On
Versions: 1 2 3 4 5 6 7 8 9 10 11 12 13 14
077
FTUS42 KJAX 231743
TAFJAX
TAF
KJAX 231743Z 2318/2418 09006KT P6SM SCT050 SCT250
     FM232000 13009G15KT P6SM BKN045 BKN250
     FM240200 18004KT P6SM SCT250
     FM241300 23004KT P6SM FEW030 SCT250=

USA.gov is the U.S. government's official web portal to all federal, state and local government web resources and services.